createdAt,value
2022-12-17T00:01:04.448Z,78.73
2022-12-17T00:03:49.970Z,78.88
2022-12-17T00:06:36.247Z,78.97
2022-12-17T00:09:21.632Z,78.85
2022-12-17T00:12:07.100Z,78.68
2022-12-17T00:14:52.568Z,78.70
2022-12-17T00:17:39.306Z,78.74
2022-12-17T00:20:24.850Z,78.58
2022-12-17T00:23:20.527Z,78.64
2022-12-17T00:26:20.802Z,78.51
2022-12-17T00:29:10.703Z,78.39
2022-12-17T00:31:56.364Z,78.22
2022-12-17T00:34:42.009Z,78.21
2022-12-17T00:37:28.842Z,78.17
2022-12-17T00:40:14.397Z,78.13
2022-12-17T00:43:00.354Z,77.87
2022-12-17T00:45:46.232Z,77.71
2022-12-17T00:48:31.722Z,77.68
2022-12-17T00:51:17.178Z,77.69
2022-12-17T00:54:04.068Z,77.75
2022-12-17T00:56:52.061Z,77.83
2022-12-17T00:59:37.571Z,77.66
2022-12-17T01:02:23.190Z,77.41
2022-12-17T01:05:08.924Z,77.41
2022-12-17T01:07:54.870Z,77.36
2022-12-17T01:10:42.079Z,77.37
2022-12-17T01:13:27.622Z,77.29
2022-12-17T01:16:13.079Z,77.02
2022-12-17T01:18:58.584Z,76.90
2022-12-17T01:21:51.560Z,76.83
2022-12-17T01:24:37.427Z,76.85
2022-12-17T01:27:24.170Z,76.98
2022-12-17T01:30:09.830Z,76.92
2022-12-17T01:32:55.219Z,76.74
2022-12-17T01:35:40.790Z,76.52
2022-12-17T01:38:32.912Z,76.48
2022-12-17T01:41:18.257Z,76.48
2022-12-17T01:44:03.863Z,76.52
2022-12-17T01:46:52.407Z,76.20
2022-12-17T01:49:39.697Z,75.74
2022-12-17T01:52:25.184Z,75.56
2022-12-17T01:55:10.842Z,75.27
2022-12-17T01:57:58.064Z,75.13
2022-12-17T02:00:43.590Z,75.20
2022-12-17T02:03:36.557Z,75.28
2022-12-17T02:06:37.599Z,75.32
2022-12-17T02:09:27.096Z,75.34
2022-12-17T02:12:21.863Z,75.21
2022-12-17T02:15:11.779Z,75.12
2022-12-17T02:18:00.347Z,75.28
2022-12-17T02:20:49.846Z,75.35
2022-12-17T02:23:47.518Z,75.42
2022-12-17T02:26:49.712Z,75.52
2022-12-17T02:29:38.814Z,75.56
2022-12-17T02:32:24.358Z,75.40
2022-12-17T02:35:09.750Z,75.45
2022-12-17T02:37:55.297Z,75.51
2022-12-17T02:40:41.302Z,75.50
2022-12-17T02:43:27.284Z,75.58
2022-12-17T02:46:13.635Z,75.64
2022-12-17T02:48:59.532Z,75.42
2022-12-17T02:51:46.584Z,75.21
2022-12-17T02:54:32.120Z,75.28
2022-12-17T02:57:17.553Z,75.33
2022-12-17T03:00:03.461Z,75.37
2022-12-17T03:02:49.737Z,75.48
2022-12-17T03:05:45.057Z,75.55
2022-12-17T03:08:31.761Z,75.45
2022-12-17T03:11:17.347Z,75.39
2022-12-17T03:14:02.873Z,75.36
2022-12-17T03:16:48.588Z,75.51
2022-12-17T03:19:34.267Z,75.56
2022-12-17T03:22:19.587Z,75.60
2022-12-17T03:25:04.934Z,75.66
2022-12-17T03:27:50.432Z,75.49
2022-12-17T03:30:39.173Z,75.16
2022-12-17T03:33:27.920Z,75.35
2022-12-17T03:36:13.496Z,75.20
2022-12-17T03:38:58.816Z,75.32
2022-12-17T03:41:44.275Z,75.26
2022-12-17T03:44:29.752Z,75.24
2022-12-17T03:47:15.339Z,75.06
2022-12-17T03:50:00.821Z,75.06
2022-12-17T03:52:46.366Z,75.10
2022-12-17T03:55:31.736Z,75.11
2022-12-17T03:58:17.253Z,75.12
2022-12-17T04:01:02.900Z,75.21
2022-12-17T04:03:48.589Z,75.11
2022-12-17T04:06:34.093Z,74.99
2022-12-17T04:09:19.498Z,74.87
2022-12-17T04:12:04.993Z,74.92
2022-12-17T04:14:50.444Z,75.09
2022-12-17T04:17:36.212Z,75.09
2022-12-17T04:20:22.155Z,75.17
2022-12-17T04:23:07.729Z,75.10
2022-12-17T04:25:53.168Z,75.06
2022-12-17T04:28:38.607Z,74.97
2022-12-17T04:31:24.347Z,74.94
2022-12-17T04:34:09.799Z,75.13
2022-12-17T04:36:55.362Z,75.16
2022-12-17T04:39:40.733Z,75.31
2022-12-17T04:42:26.132Z,75.45
2022-12-17T04:45:11.679Z,75.29
2022-12-17T04:47:57.023Z,75.08
2022-12-17T04:50:56.254Z,75.10
2022-12-17T04:53:41.700Z,75.38
2022-12-17T04:56:27.125Z,75.36
2022-12-17T04:59:12.556Z,75.48
2022-12-17T05:01:58.304Z,75.57
2022-12-17T05:04:43.991Z,75.49
2022-12-17T05:07:29.417Z,75.37
2022-12-17T05:10:14.903Z,75.44
2022-12-17T05:13:00.310Z,75.45
2022-12-17T05:15:51.290Z,75.44
2022-12-17T05:18:38.419Z,75.43
2022-12-17T05:21:23.884Z,75.40
2022-12-17T05:24:09.238Z,75.26
2022-12-17T05:26:54.877Z,75.08
2022-12-17T05:29:42.728Z,75.12
2022-12-17T05:32:28.259Z,75.12
2022-12-17T05:35:13.677Z,74.99
2022-12-17T05:37:59.164Z,75.05
2022-12-17T05:40:44.641Z,75.23
2022-12-17T05:43:31.300Z,75.21
2022-12-17T05:46:17.736Z,75.15
2022-12-17T05:49:03.248Z,75.02
2022-12-17T05:51:48.738Z,74.99
2022-12-17T05:54:34.254Z,74.95
2022-12-17T05:57:19.852Z,75.01
2022-12-17T06:00:05.339Z,75.14
2022-12-17T06:02:57.715Z,75.06
2022-12-17T06:05:43.398Z,74.97
2022-12-17T06:08:28.788Z,74.81
2022-12-17T06:11:17.658Z,74.69
2022-12-17T06:14:03.122Z,74.94
2022-12-17T06:16:48.525Z,74.99
2022-12-17T06:19:33.848Z,75.07
2022-12-17T06:22:19.434Z,75.28
2022-12-17T06:25:04.817Z,75.17
2022-12-17T06:27:50.335Z,74.99
2022-12-17T06:30:35.824Z,75.12
2022-12-17T06:33:28.998Z,75.27
2022-12-17T06:36:21.605Z,75.56
2022-12-17T06:39:07.895Z,75.76
2022-12-17T06:41:54.771Z,75.87
2022-12-17T06:44:47.766Z,75.77
2022-12-17T06:47:33.302Z,75.59
2022-12-17T06:50:18.823Z,75.73
2022-12-17T06:53:04.391Z,75.93
2022-12-17T06:55:49.787Z,75.98
2022-12-17T06:58:35.491Z,76.07
2022-12-17T07:01:21.320Z,76.16
2022-12-17T07:04:06.941Z,76.13
2022-12-17T07:06:55.529Z,75.94
2022-12-17T07:09:42.677Z,76.05
2022-12-17T07:12:28.042Z,76.15
2022-12-17T07:15:13.804Z,76.22
2022-12-17T07:19:56.005Z,76.46
2022-12-17T07:22:55.411Z,76.39
2022-12-17T07:25:45.830Z,76.11
2022-12-17T07:28:32.819Z,76.16
2022-12-17T07:31:20.092Z,76.45
2022-12-17T07:34:08.998Z,76.63
2022-12-17T07:36:57.255Z,76.82
2022-12-17T07:39:47.384Z,76.80
2022-12-17T07:42:33.115Z,76.75
2022-12-17T07:45:18.903Z,76.55
2022-12-17T07:48:13.232Z,76.58
2022-12-17T07:50:58.844Z,76.95
2022-12-17T07:53:44.580Z,77.16
2022-12-17T07:56:30.484Z,76.99
2022-12-17T07:59:16.276Z,76.79
2022-12-17T08:02:04.992Z,76.62
2022-12-17T08:04:51.122Z,76.56
2022-12-17T08:07:36.888Z,76.55
2022-12-17T08:10:26.364Z,76.66
2022-12-17T08:13:18.884Z,76.76
2022-12-17T08:16:04.587Z,76.87
2022-12-17T08:18:50.457Z,77.01
2022-12-17T08:21:36.086Z,76.99
2022-12-17T08:24:21.807Z,76.77
2022-12-17T08:27:07.507Z,76.60
2022-12-17T08:29:53.398Z,76.68
2022-12-17T08:32:39.183Z,76.73
2022-12-17T08:35:24.986Z,76.81
2022-12-17T08:38:12.202Z,76.89
2022-12-17T08:48:56.059Z,76.71
2022-12-17T08:51:45.172Z,76.71
2022-12-17T08:54:31.013Z,76.54
2022-12-17T08:57:30.624Z,76.51
2022-12-17T09:00:19.379Z,76.44
2022-12-17T09:03:05.055Z,76.28
2022-12-17T09:05:50.578Z,76.03
2022-12-17T09:08:36.112Z,76.01
2022-12-17T09:11:21.447Z,76.03
2022-12-17T09:14:06.987Z,76.13
2022-12-17T09:16:52.503Z,76.07
2022-12-17T09:19:38.037Z,75.90
2022-12-17T09:22:23.653Z,75.60
2022-12-17T09:25:09.308Z,75.69
2022-12-17T09:27:54.872Z,75.81
2022-12-17T09:30:40.341Z,75.84
2022-12-17T09:33:25.784Z,75.75
2022-12-17T09:36:11.293Z,75.92
2022-12-17T09:38:56.726Z,75.89
2022-12-17T09:41:51.383Z,75.80
2022-12-17T09:44:45.418Z,75.68
2022-12-17T09:47:52.452Z,75.63
2022-12-17T09:50:37.893Z,75.63
2022-12-17T09:53:29.443Z,75.59
2022-12-17T09:56:14.948Z,75.47
2022-12-17T09:59:00.536Z,75.38
2022-12-17T10:01:49.696Z,75.25
2022-12-17T10:04:56.137Z,75.10
2022-12-17T10:07:43.526Z,75.18
2022-12-17T10:10:34.206Z,75.33
2022-12-17T10:13:19.644Z,75.48
2022-12-17T10:16:05.903Z,75.54
2022-12-17T10:19:00.836Z,75.11
2022-12-17T10:21:50.768Z,74.94
2022-12-17T10:24:36.359Z,74.94
2022-12-17T10:27:28.969Z,74.87
2022-12-17T10:30:14.524Z,75.07
2022-12-17T10:33:00.116Z,75.09
2022-12-17T10:35:53.710Z,75.28
2022-12-17T10:38:41.772Z,75.07
2022-12-17T10:41:37.898Z,74.75
2022-12-17T10:44:38.313Z,74.83
2022-12-17T10:47:26.387Z,74.93
2022-12-17T10:50:16.567Z,75.02
2022-12-17T10:53:14.127Z,74.98
2022-12-17T10:56:13.121Z,75.01
2022-12-17T10:59:05.919Z,74.68
2022-12-17T11:01:51.513Z,74.43
2022-12-17T11:04:57.432Z,74.38
2022-12-17T11:07:43.806Z,74.46
2022-12-17T11:10:44.253Z,74.54
2022-12-17T11:13:35.110Z,74.72
2022-12-17T11:16:20.803Z,74.90
2022-12-17T11:19:17.549Z,74.79
2022-12-17T11:22:05.906Z,74.76
2022-12-17T11:24:53.911Z,74.46
2022-12-17T11:27:41.088Z,74.49
2022-12-17T11:30:33.671Z,74.47
2022-12-17T11:33:25.254Z,74.45
2022-12-17T11:36:13.742Z,74.52
2022-12-17T11:39:25.677Z,74.01
2022-12-17T11:42:17.400Z,73.43
2022-12-17T11:45:06.508Z,73.24
2022-12-17T11:48:15.358Z,73.00
2022-12-17T11:51:33.479Z,72.99
2022-12-17T11:54:19.985Z,73.10
2022-12-17T11:57:10.473Z,73.13
2022-12-17T12:00:04.560Z,73.01
2022-12-17T12:03:09.305Z,72.77
2022-12-17T12:06:17.898Z,72.72
2022-12-17T12:09:52.561Z,72.57
2022-12-17T12:12:59.025Z,72.75
2022-12-17T12:15:55.763Z,72.79
2022-12-17T12:18:57.287Z,73.01
2022-12-17T12:21:59.070Z,73.05
2022-12-17T12:25:02.595Z,72.92
2022-12-17T12:28:24.124Z,72.74
2022-12-17T12:31:25.974Z,72.67
2022-12-17T12:34:19.511Z,72.44
2022-12-17T12:37:05.050Z,72.48
2022-12-17T12:39:57.026Z,72.39
2022-12-17T12:42:56.272Z,72.06
2022-12-17T12:46:03.685Z,72.13
2022-12-17T12:48:55.514Z,71.92
2022-12-17T12:51:48.204Z,71.77
2022-12-17T12:54:47.563Z,71.52
2022-12-17T12:57:52.491Z,71.44
2022-12-17T13:00:44.267Z,71.15
2022-12-17T13:03:58.293Z,71.00
2022-12-17T13:06:40.110Z,70.90
2022-12-17T13:09:19.051Z,71.00
2022-12-17T13:11:48.255Z,71.23
2022-12-17T13:14:20.850Z,71.46
2022-12-17T13:16:47.765Z,71.50
2022-12-17T13:19:40.270Z,71.50
2022-12-17T13:22:10.107Z,71.41
2022-12-17T13:24:37.029Z,71.33
2022-12-17T13:27:04.294Z,71.24
2022-12-17T13:29:36.167Z,71.31
2022-12-17T13:32:19.915Z,71.50
2022-12-17T13:34:58.379Z,71.57
2022-12-17T13:37:29.302Z,71.50
2022-12-17T13:40:01.782Z,71.49
2022-12-17T13:42:33.070Z,71.51
2022-12-17T13:44:59.990Z,71.53
2022-12-17T13:47:35.244Z,71.52
2022-12-17T13:50:32.809Z,71.46
2022-12-17T13:52:56.923Z,71.46
2022-12-17T13:55:25.666Z,71.20
2022-12-17T13:57:54.218Z,71.02
2022-12-17T14:00:23.399Z,70.86
2022-12-17T14:02:53.124Z,71.04
2022-12-17T14:05:40.324Z,71.10
2022-12-17T14:08:07.316Z,70.88
2022-12-17T14:10:34.144Z,70.78
2022-12-17T14:13:10.661Z,70.62
2022-12-17T14:15:37.611Z,70.28
2022-12-17T14:18:04.532Z,70.24
2022-12-17T14:20:33.075Z,70.27
2022-12-17T14:23:06.189Z,70.04
2022-12-17T14:25:38.165Z,69.92
2022-12-17T14:28:07.205Z,69.69
2022-12-17T14:31:17.126Z,69.47
2022-12-17T14:33:31.471Z,69.41
2022-12-17T14:36:09.033Z,69.45
2022-12-17T14:38:39.482Z,69.68
2022-12-17T14:41:31.101Z,69.67
2022-12-17T14:43:59.006Z,69.93
2022-12-17T14:46:34.103Z,69.94
2022-12-17T14:49:12.312Z,69.87
2022-12-17T14:51:40.617Z,69.98
2022-12-17T14:54:20.517Z,69.71
2022-12-17T14:56:54.694Z,69.65
2022-12-17T14:59:35.375Z,69.43
2022-12-17T15:02:09.333Z,69.03
2022-12-17T15:04:37.147Z,68.98
2022-12-17T15:07:04.420Z,69.07
2022-12-17T15:09:35.308Z,69.34
2022-12-17T15:12:04.782Z,69.44
2022-12-17T15:14:32.133Z,69.25
2022-12-17T15:17:07.026Z,69.36
2022-12-17T15:19:33.860Z,69.26
2022-12-17T15:22:00.785Z,69.23
2022-12-17T15:24:27.604Z,69.41
2022-12-17T15:26:58.351Z,69.11
2022-12-17T15:29:25.212Z,69.06
2022-12-17T15:31:54.436Z,69.07
2022-12-17T15:34:23.528Z,69.18
2022-12-17T15:36:50.351Z,69.12
2022-12-17T15:39:17.453Z,69.07
2022-12-17T15:42:03.319Z,69.12
2022-12-17T15:44:30.116Z,69.01
2022-12-17T15:47:00.114Z,69.21
2022-12-17T15:49:27.182Z,69.57
2022-12-17T15:51:54.008Z,69.38
2022-12-17T15:54:20.911Z,69.41
2022-12-17T15:56:52.675Z,69.53
2022-12-17T15:59:19.744Z,69.54
2022-12-17T16:01:52.027Z,69.59
2022-12-17T16:04:24.646Z,69.36
2022-12-17T16:06:52.031Z,69.56
2022-12-17T16:09:19.547Z,69.37
2022-12-17T16:11:47.326Z,69.42
2022-12-17T16:14:14.184Z,69.28
2022-12-17T16:16:43.350Z,69.27
2022-12-17T16:19:10.717Z,69.18
2022-12-17T16:21:42.041Z,69.30
2022-12-17T16:24:12.228Z,69.46
2022-12-17T16:26:40.143Z,69.42
2022-12-17T16:29:07.048Z,69.66
2022-12-17T16:31:34.363Z,70.04
2022-12-17T16:34:01.236Z,70.20
2022-12-17T16:36:28.039Z,70.03
2022-12-17T16:38:55.136Z,70.25
2022-12-17T16:41:22.040Z,70.33
2022-12-17T16:43:51.434Z,70.41
2022-12-17T16:46:34.389Z,70.53
2022-12-17T16:49:09.422Z,70.53
2022-12-17T16:51:38.911Z,70.26
2022-12-17T16:54:14.465Z,70.51
2022-12-17T16:56:41.428Z,70.68
2022-12-17T16:59:11.163Z,70.61
2022-12-17T17:01:38.919Z,70.51
2022-12-17T17:04:06.945Z,70.36
2022-12-17T17:06:41.321Z,70.30
2022-12-17T17:09:08.263Z,70.44
2022-12-17T17:11:35.181Z,70.60
2022-12-17T17:14:04.911Z,70.74
2022-12-17T17:16:31.844Z,70.81
2022-12-17T17:18:58.745Z,70.92
2022-12-17T17:21:30.339Z,70.26
2022-12-17T17:24:20.851Z,69.80
2022-12-17T17:26:49.075Z,69.63
2022-12-17T17:29:15.901Z,69.75
2022-12-17T17:34:30.119Z,69.46
2022-12-17T17:37:04.301Z,69.32
2022-12-17T17:39:33.455Z,69.07
2022-12-17T17:42:00.915Z,69.24
2022-12-17T17:44:28.002Z,68.92
2022-12-17T17:46:54.896Z,69.19
2022-12-17T17:49:22.388Z,69.43
2022-12-17T17:52:08.947Z,69.41
2022-12-17T17:54:36.492Z,69.53
2022-12-17T17:57:05.617Z,69.39
2022-12-17T17:59:34.019Z,69.29
2022-12-17T18:02:01.710Z,69.45
2022-12-17T18:04:28.694Z,69.57
2022-12-17T18:07:24.075Z,69.65
2022-12-17T18:09:42.544Z,69.77
2022-12-17T18:12:27.971Z,70.01
2022-12-17T18:17:41.946Z,70.14
2022-12-17T18:20:09.902Z,70.05
2022-12-17T18:22:37.000Z,70.01
2022-12-17T18:25:04.370Z,69.89
2022-12-17T18:27:34.257Z,69.93
2022-12-17T18:30:01.292Z,69.76
2022-12-17T18:32:30.214Z,69.57
2022-12-17T18:34:57.170Z,69.60
2022-12-17T18:37:26.808Z,69.39
2022-12-17T18:39:53.640Z,69.59
2022-12-17T18:42:40.417Z,69.38
2022-12-17T18:45:07.809Z,69.35
2022-12-17T18:47:39.678Z,69.08
2022-12-17T18:50:06.938Z,69.01
2022-12-17T18:52:33.833Z,68.89
2022-12-17T18:55:04.372Z,68.75
2022-12-17T18:57:43.240Z,68.47
2022-12-17T19:00:17.205Z,68.31
2022-12-17T19:02:44.624Z,68.40
2022-12-17T19:05:11.595Z,68.48
2022-12-17T19:07:38.585Z,68.60
2022-12-17T19:10:10.179Z,68.74
2022-12-17T19:12:40.542Z,68.53
2022-12-17T19:15:11.288Z,68.70
2022-12-17T19:17:41.702Z,68.80
2022-12-17T19:20:09.348Z,68.85
2022-12-17T19:22:36.225Z,68.73
2022-12-17T19:25:03.255Z,68.71
2022-12-17T19:27:30.150Z,68.78
2022-12-17T19:29:57.612Z,68.67
2022-12-17T19:32:25.052Z,68.47
2022-12-17T19:37:23.172Z,68.56
2022-12-17T19:39:50.176Z,68.75
2022-12-17T19:42:27.606Z,68.75
2022-12-17T19:44:57.443Z,68.85
2022-12-17T19:47:24.630Z,68.54
2022-12-17T19:49:51.573Z,68.31
2022-12-17T19:52:21.226Z,67.99
2022-12-17T19:54:48.789Z,67.86
2022-12-17T19:57:15.880Z,67.55
2022-12-17T19:59:45.166Z,67.28
2022-12-17T20:02:12.303Z,67.23
2022-12-17T20:04:42.292Z,67.37
2022-12-17T20:07:09.080Z,67.54
2022-12-17T20:09:45.617Z,67.52
2022-12-17T20:12:12.850Z,67.29
2022-12-17T20:14:39.744Z,67.02
2022-12-17T20:17:06.717Z,66.68
2022-12-17T20:19:35.262Z,66.31
2022-12-17T20:22:05.977Z,66.39
2022-12-17T20:24:38.082Z,66.37
2022-12-17T20:27:09.472Z,66.36
2022-12-17T20:29:36.369Z,66.35
2022-12-17T20:32:03.630Z,66.18
2022-12-17T20:34:30.725Z,66.12
2022-12-17T20:36:57.544Z,65.61
2022-12-17T20:39:28.253Z,65.49
2022-12-17T20:41:56.448Z,65.41
2022-12-17T20:44:23.464Z,65.45
2022-12-17T20:46:50.396Z,65.60
2022-12-17T20:49:18.378Z,65.54
2022-12-17T20:51:46.036Z,65.55
2022-12-17T20:54:12.858Z,65.50
2022-12-17T20:56:40.100Z,65.42
2022-12-17T20:59:08.709Z,65.22
2022-12-17T21:01:36.137Z,65.41
2022-12-17T21:04:03.482Z,65.88
2022-12-17T21:06:34.802Z,66.11
2022-12-17T21:09:03.512Z,66.12
2022-12-17T21:11:32.987Z,65.94
2022-12-17T21:14:10.308Z,65.94
2022-12-17T21:16:38.416Z,65.62
2022-12-17T21:19:26.606Z,65.83
2022-12-17T21:22:32.285Z,65.66
2022-12-17T21:25:01.562Z,65.73
2022-12-17T21:27:29.851Z,65.67
2022-12-17T21:29:57.250Z,65.70
2022-12-17T21:32:28.819Z,65.79
2022-12-17T21:35:00.411Z,65.80
2022-12-17T21:37:27.530Z,65.83
2022-12-17T21:39:59.544Z,65.85
2022-12-17T21:42:45.529Z,65.76
2022-12-17T21:45:12.670Z,65.73
2022-12-17T21:47:39.905Z,65.87
2022-12-17T21:50:07.241Z,65.85
2022-12-17T21:52:34.103Z,65.71
2022-12-17T21:55:00.966Z,65.71
2022-12-17T21:57:27.815Z,65.72
2022-12-17T21:59:54.615Z,65.90
2022-12-17T22:02:25.050Z,65.86
2022-12-17T22:04:52.148Z,65.78
2022-12-17T22:07:22.436Z,65.83
2022-12-17T22:10:17.764Z,65.84
2022-12-17T22:13:03.096Z,66.01
2022-12-17T22:15:30.994Z,65.83
2022-12-17T22:18:05.264Z,66.10
2022-12-17T22:20:37.767Z,65.84
2022-12-17T22:23:06.826Z,65.87
2022-12-17T22:25:43.652Z,65.92
2022-12-17T22:28:10.724Z,65.91
2022-12-17T22:30:59.903Z,65.88
2022-12-17T22:34:27.179Z,65.82
2022-12-17T22:38:54.452Z,65.84
2022-12-17T22:42:42.325Z,65.84
2022-12-17T22:44:41.941Z,65.92
2022-12-17T22:45:10.310Z,65.83
2022-12-17T22:47:41.689Z,65.93
2022-12-17T22:50:08.924Z,66.17
2022-12-17T22:52:38.985Z,66.22
2022-12-17T22:55:09.490Z,66.23
2022-12-17T22:57:38.550Z,66.33
2022-12-17T23:00:20.303Z,66.19
2022-12-17T23:02:47.283Z,65.81
2022-12-17T23:05:14.771Z,65.71
2022-12-17T23:07:41.615Z,65.71
2022-12-17T23:10:08.893Z,65.58
2022-12-17T23:12:50.871Z,65.62
2022-12-17T23:15:42.978Z,65.86
2022-12-17T23:18:12.567Z,65.93
2022-12-17T23:20:39.400Z,66.12
2022-12-17T23:23:06.345Z,66.16
2022-12-17T23:25:33.602Z,66.36
2022-12-17T23:28:00.447Z,66.32
2022-12-17T23:30:27.192Z,66.35
2022-12-17T23:32:53.976Z,66.30
2022-12-17T23:35:20.966Z,66.33
2022-12-17T23:37:47.893Z,66.40
2022-12-17T23:40:14.861Z,66.11
2022-12-17T23:42:42.595Z,65.99
2022-12-17T23:45:11.506Z,65.97
2022-12-17T23:47:41.325Z,65.97
2022-12-17T23:50:11.264Z,65.94
2022-12-17T23:52:38.402Z,65.97
2022-12-17T23:55:05.543Z,66.21
2022-12-17T23:57:32.705Z,66.15
